sensor_id;sensor_type;location;lat;lon;timestamp;noise_LAeq;noise_LA_min;noise_LA_max;noise_LA01;noise_LA95
76338;Laerm;20358;50.272;19.026;2023-07-31T00:02:49;42.32;34.33;64.48;;
76338;Laerm;20358;50.272;19.026;2023-07-31T00:06:03;43.33;35.10;59.55;;
76338;Laerm;20358;50.272;19.026;2023-07-31T00:09:08;45.76;35.89;71.04;;
76338;Laerm;20358;50.272;19.026;2023-07-31T00:12:16;45.19;35.77;68.73;;
76338;Laerm;20358;50.272;19.026;2023-07-31T00:15:23;42.18;34.46;59.28;;
76338;Laerm;20358;50.272;19.026;2023-07-31T00:18:29;45.91;35.76;62.76;;
76338;Laerm;20358;50.272;19.026;2023-07-31T00:21:38;41.69;34.80;57.80;;
76338;Laerm;20358;50.272;19.026;2023-07-31T00:24:44;39.92;34.36;54.42;;
76338;Laerm;20358;50.272;19.026;2023-07-31T00:27:50;43.05;34.15;68.49;;
76338;Laerm;20358;50.272;19.026;2023-07-31T00:30:58;46.66;35.48;70.90;;
76338;Laerm;20358;50.272;19.026;2023-07-31T00:34:04;44.80;35.75;59.70;;
76338;Laerm;20358;50.272;19.026;2023-07-31T00:37:14;49.75;35.25;67.69;;
76338;Laerm;20358;50.272;19.026;2023-07-31T00:40:20;38.37;34.49;57.43;;
76338;Laerm;20358;50.272;19.026;2023-07-31T00:43:27;43.11;34.84;65.66;;
76338;Laerm;20358;50.272;19.026;2023-07-31T00:46:33;45.82;34.61;69.14;;
76338;Laerm;20358;50.272;19.026;2023-07-31T00:49:40;46.52;35.38;65.98;;
76338;Laerm;20358;50.272;19.026;2023-07-31T00:52:49;47.55;34.60;75.33;;
76338;Laerm;20358;50.272;19.026;2023-07-31T00:55:57;59.25;34.85;84.46;;
76338;Laerm;20358;50.272;19.026;2023-07-31T00:59:03;59.19;37.07;80.17;;
76338;Laerm;20358;50.272;19.026;2023-07-31T01:02:11;60.80;35.71;81.01;;
76338;Laerm;20358;50.272;19.026;2023-07-31T01:05:31;41.63;35.03;59.00;;
76338;Laerm;20358;50.272;19.026;2023-07-31T01:08:51;46.21;36.60;63.95;;
76338;Laerm;20358;50.272;19.026;2023-07-31T01:12:04;43.72;35.08;59.18;;
76338;Laerm;20358;50.272;19.026;2023-07-31T01:15:13;47.02;34.85;73.71;;
76338;Laerm;20358;50.272;19.026;2023-07-31T01:18:20;43.15;34.36;61.97;;
76338;Laerm;20358;50.272;19.026;2023-07-31T01:21:56;45.66;34.74;73.60;;
76338;Laerm;20358;50.272;19.026;2023-07-31T01:25:32;42.34;34.72;61.69;;
76338;Laerm;20358;50.272;19.026;2023-07-31T01:29:02;41.92;34.36;55.99;;
76338;Laerm;20358;50.272;19.026;2023-07-31T01:32:12;46.23;35.47;70.10;;
76338;Laerm;20358;50.272;19.026;2023-07-31T01:35:20;48.29;35.08;69.17;;
76338;Laerm;20358;50.272;19.026;2023-07-31T01:38:27;48.12;37.49;63.51;;
76338;Laerm;20358;50.272;19.026;2023-07-31T01:41:33;40.23;35.54;54.65;;
76338;Laerm;20358;50.272;19.026;2023-07-31T01:44:43;45.23;37.21;62.04;;
76338;Laerm;20358;50.272;19.026;2023-07-31T01:47:49;45.23;37.15;61.08;;
76338;Laerm;20358;50.272;19.026;2023-07-31T01:51:00;45.35;34.97;65.44;;
76338;Laerm;20358;50.272;19.026;2023-07-31T01:54:06;45.95;34.78;64.00;;
76338;Laerm;20358;50.272;19.026;2023-07-31T01:57:14;50.06;36.15;70.84;;
76338;Laerm;20358;50.272;19.026;2023-07-31T02:00:22;44.77;35.75;64.25;;
76338;Laerm;20358;50.272;19.026;2023-07-31T02:03:29;47.44;36.82;64.58;;
76338;Laerm;20358;50.272;19.026;2023-07-31T02:06:35;44.43;37.54;63.64;;
76338;Laerm;20358;50.272;19.026;2023-07-31T02:09:43;43.82;35.55;58.73;;
76338;Laerm;20358;50.272;19.026;2023-07-31T02:12:53;48.16;35.64;71.80;;
76338;Laerm;20358;50.272;19.026;2023-07-31T02:16:04;48.12;36.64;62.51;;
76338;Laerm;20358;50.272;19.026;2023-07-31T02:19:10;44.70;35.92;62.59;;
76338;Laerm;20358;50.272;19.026;2023-07-31T02:22:16;47.21;36.88;62.39;;
76338;Laerm;20358;50.272;19.026;2023-07-31T02:25:22;45.40;37.47;60.88;;
76338;Laerm;20358;50.272;19.026;2023-07-31T02:28:29;45.34;36.77;61.15;;
76338;Laerm;20358;50.272;19.026;2023-07-31T02:31:38;45.03;36.80;59.05;;
76338;Laerm;20358;50.272;19.026;2023-07-31T02:34:44;46.83;35.39;58.80;;
76338;Laerm;20358;50.272;19.026;2023-07-31T02:37:52;46.69;36.01;70.73;;
76338;Laerm;20358;50.272;19.026;2023-07-31T02:40:58;47.50;39.83;63.71;;
76338;Laerm;20358;50.272;19.026;2023-07-31T02:44:05;47.28;37.24;63.47;;
76338;Laerm;20358;50.272;19.026;2023-07-31T02:47:16;45.98;35.96;61.37;;
76338;Laerm;20358;50.272;19.026;2023-07-31T02:50:22;46.99;36.45;60.12;;
76338;Laerm;20358;50.272;19.026;2023-07-31T02:53:28;48.75;38.90;69.45;;
76338;Laerm;20358;50.272;19.026;2023-07-31T02:56:34;47.45;37.52;70.27;;
76338;Laerm;20358;50.272;19.026;2023-07-31T02:59:41;50.50;39.29;67.60;;
76338;Laerm;20358;50.272;19.026;2023-07-31T03:02:50;48.95;37.43;66.17;;
76338;Laerm;20358;50.272;19.026;2023-07-31T03:05:57;50.67;40.08;69.48;;
76338;Laerm;20358;50.272;19.026;2023-07-31T03:09:03;49.87;39.14;67.80;;
76338;Laerm;20358;50.272;19.026;2023-07-31T03:12:09;49.43;38.38;64.20;;
76338;Laerm;20358;50.272;19.026;2023-07-31T03:15:15;49.57;39.81;65.69;;
76338;Laerm;20358;50.272;19.026;2023-07-31T03:18:25;51.64;38.90;73.78;;
76338;Laerm;20358;50.272;19.026;2023-07-31T03:21:30;50.40;41.06;66.93;;
76338;Laerm;20358;50.272;19.026;2023-07-31T03:24:37;50.07;40.52;65.48;;
76338;Laerm;20358;50.272;19.026;2023-07-31T03:27:43;47.87;38.21;63.57;;
76338;Laerm;20358;50.272;19.026;2023-07-31T03:30:50;51.20;41.38;71.56;;
76338;Laerm;20358;50.272;19.026;2023-07-31T03:33:59;51.40;41.01;61.81;;
76338;Laerm;20358;50.272;19.026;2023-07-31T03:37:06;50.70;39.55;60.99;;
76338;Laerm;20358;50.272;19.026;2023-07-31T03:40:12;50.26;40.43;61.52;;
76338;Laerm;20358;50.272;19.026;2023-07-31T03:43:21;52.02;42.66;66.83;;
76338;Laerm;20358;50.272;19.026;2023-07-31T03:46:28;53.67;41.86;70.62;;
76338;Laerm;20358;50.272;19.026;2023-07-31T03:49:37;58.43;42.49;76.87;;
76338;Laerm;20358;50.272;19.026;2023-07-31T03:52:43;52.38;43.00;66.95;;
76338;Laerm;20358;50.272;19.026;2023-07-31T03:55:49;51.62;41.24;67.61;;
76338;Laerm;20358;50.272;19.026;2023-07-31T03:58:55;51.60;41.13;67.20;;
76338;Laerm;20358;50.272;19.026;2023-07-31T04:02:02;49.87;40.03;63.44;;
76338;Laerm;20358;50.272;19.026;2023-07-31T04:05:12;50.40;40.39;60.46;;
76338;Laerm;20358;50.272;19.026;2023-07-31T04:08:21;53.55;40.61;70.97;;
76338;Laerm;20358;50.272;19.026;2023-07-31T04:11:27;52.46;39.53;62.55;;
76338;Laerm;20358;50.272;19.026;2023-07-31T04:14:38;50.65;41.59;60.12;;
76338;Laerm;20358;50.272;19.026;2023-07-31T04:17:43;51.64;42.66;60.78;;
76338;Laerm;20358;50.272;19.026;2023-07-31T04:20:57;52.52;41.04;73.61;;
76338;Laerm;20358;50.272;19.026;2023-07-31T04:24:05;54.04;42.97;67.90;;
76338;Laerm;20358;50.272;19.026;2023-07-31T04:27:19;64.70;43.71;91.76;;
76338;Laerm;20358;50.272;19.026;2023-07-31T04:30:26;54.08;43.86;69.36;;
76338;Laerm;20358;50.272;19.026;2023-07-31T04:33:32;52.05;41.50;63.08;;
76338;Laerm;20358;50.272;19.026;2023-07-31T04:36:47;54.99;43.98;69.41;;
76338;Laerm;20358;50.272;19.026;2023-07-31T04:39:57;54.43;42.37;71.19;;
76338;Laerm;20358;50.272;19.026;2023-07-31T04:43:04;59.48;46.64;86.81;;
76338;Laerm;20358;50.272;19.026;2023-07-31T04:46:11;52.99;44.72;61.00;;
76338;Laerm;20358;50.272;19.026;2023-07-31T04:49:17;52.74;45.22;59.38;;
76338;Laerm;20358;50.272;19.026;2023-07-31T04:52:26;52.66;44.37;72.23;;
76338;Laerm;20358;50.272;19.026;2023-07-31T04:55:32;54.16;43.80;70.81;;
76338;Laerm;20358;50.272;19.026;2023-07-31T04:58:39;52.62;44.33;62.44;;
76338;Laerm;20358;50.272;19.026;2023-07-31T05:01:46;52.27;41.33;62.59;;
76338;Laerm;20358;50.272;19.026;2023-07-31T05:04:52;52.82;45.27;67.20;;
76338;Laerm;20358;50.272;19.026;2023-07-31T05:08:02;54.43;45.67;71.91;;
76338;Laerm;20358;50.272;19.026;2023-07-31T05:11:08;54.35;44.80;66.71;;
76338;Laerm;20358;50.272;19.026;2023-07-31T05:14:14;52.58;45.96;60.01;;
76338;Laerm;20358;50.272;19.026;2023-07-31T05:17:22;52.18;44.44;61.42;;
76338;Laerm;20358;50.272;19.026;2023-07-31T05:20:28;51.96;41.66;61.58;;
76338;Laerm;20358;50.272;19.026;2023-07-31T05:23:40;54.67;43.06;68.11;;
76338;Laerm;20358;50.272;19.026;2023-07-31T05:26:46;54.72;44.87;70.67;;
76338;Laerm;20358;50.272;19.026;2023-07-31T05:29:54;54.67;44.56;71.35;;
76338;Laerm;20358;50.272;19.026;2023-07-31T05:33:00;54.15;44.68;67.21;;
76338;Laerm;20358;50.272;19.026;2023-07-31T05:36:09;51.70;44.41;63.43;;
76338;Laerm;20358;50.272;19.026;2023-07-31T05:39:19;53.93;43.58;67.75;;
76338;Laerm;20358;50.272;19.026;2023-07-31T05:42:26;52.69;43.73;63.27;;
76338;Laerm;20358;50.272;19.026;2023-07-31T05:45:32;51.69;42.37;59.88;;
76338;Laerm;20358;50.272;19.026;2023-07-31T05:48:39;52.24;44.23;63.05;;
76338;Laerm;20358;50.272;19.026;2023-07-31T05:51:45;55.09;43.21;67.98;;
76338;Laerm;20358;50.272;19.026;2023-07-31T05:54:55;52.73;46.52;60.16;;
76338;Laerm;20358;50.272;19.026;2023-07-31T05:58:01;52.69;45.60;63.78;;
76338;Laerm;20358;50.272;19.026;2023-07-31T06:01:10;52.97;45.86;69.14;;
76338;Laerm;20358;50.272;19.026;2023-07-31T06:04:19;54.91;43.89;67.28;;
76338;Laerm;20358;50.272;19.026;2023-07-31T06:07:32;52.68;45.40;63.03;;
76338;Laerm;20358;50.272;19.026;2023-07-31T06:10:40;52.37;43.30;68.54;;
76338;Laerm;20358;50.272;19.026;2023-07-31T06:13:47;54.14;45.47;67.29;;
76338;Laerm;20358;50.272;19.026;2023-07-31T06:16:53;52.36;45.89;62.31;;
76338;Laerm;20358;50.272;19.026;2023-07-31T06:20:00;55.41;47.08;68.75;;
76338;Laerm;20358;50.272;19.026;2023-07-31T06:23:08;54.50;47.35;66.10;;
76338;Laerm;20358;50.272;19.026;2023-07-31T06:26:19;52.56;43.28;64.93;;
76338;Laerm;20358;50.272;19.026;2023-07-31T06:29:25;52.14;43.01;67.11;;
76338;Laerm;20358;50.272;19.026;2023-07-31T06:32:34;55.12;45.60;69.12;;
76338;Laerm;20358;50.272;19.026;2023-07-31T06:35:43;52.87;42.53;67.24;;
76338;Laerm;20358;50.272;19.026;2023-07-31T06:38:49;51.85;42.54;69.11;;
76338;Laerm;20358;50.272;19.026;2023-07-31T06:41:58;52.55;45.99;61.57;;
76338;Laerm;20358;50.272;19.026;2023-07-31T06:45:07;55.73;45.04;69.32;;
76338;Laerm;20358;50.272;19.026;2023-07-31T06:48:14;56.98;43.16;74.12;;
76338;Laerm;20358;50.272;19.026;2023-07-31T06:51:24;55.64;42.97;73.28;;
76338;Laerm;20358;50.272;19.026;2023-07-31T06:54:31;54.57;44.83;67.33;;
76338;Laerm;20358;50.272;19.026;2023-07-31T06:57:41;52.33;44.11;61.03;;
76338;Laerm;20358;50.272;19.026;2023-07-31T07:00:47;50.90;42.68;63.35;;
76338;Laerm;20358;50.272;19.026;2023-07-31T07:03:55;51.83;42.98;60.12;;
76338;Laerm;20358;50.272;19.026;2023-07-31T07:07:00;51.59;42.16;61.71;;
76338;Laerm;20358;50.272;19.026;2023-07-31T07:10:09;51.63;42.68;66.91;;
76338;Laerm;20358;50.272;19.026;2023-07-31T07:13:18;50.87;42.73;60.19;;
76338;Laerm;20358;50.272;19.026;2023-07-31T07:16:29;51.40;43.55;61.06;;
76338;Laerm;20358;50.272;19.026;2023-07-31T07:19:34;51.77;43.43;63.25;;
76338;Laerm;20358;50.272;19.026;2023-07-31T07:22:43;51.25;41.12;67.38;;
76338;Laerm;20358;50.272;19.026;2023-07-31T07:25:49;53.36;45.51;67.11;;
76338;Laerm;20358;50.272;19.026;2023-07-31T07:28:59;52.89;41.41;65.22;;
76338;Laerm;20358;50.272;19.026;2023-07-31T07:32:06;50.97;42.48;59.00;;
76338;Laerm;20358;50.272;19.026;2023-07-31T07:35:14;50.86;43.39;60.64;;
76338;Laerm;20358;50.272;19.026;2023-07-31T07:38:20;51.11;43.32;60.34;;
76338;Laerm;20358;50.272;19.026;2023-07-31T07:41:29;51.79;42.41;61.92;;
76338;Laerm;20358;50.272;19.026;2023-07-31T07:44:38;51.39;41.38;63.10;;
76338;Laerm;20358;50.272;19.026;2023-07-31T07:47:45;50.93;43.06;63.15;;
76338;Laerm;20358;50.272;19.026;2023-07-31T07:50:51;52.47;42.22;67.23;;
76338;Laerm;20358;50.272;19.026;2023-07-31T07:53:58;51.21;43.02;72.36;;
76338;Laerm;20358;50.272;19.026;2023-07-31T07:57:04;51.19;40.76;60.38;;
76338;Laerm;20358;50.272;19.026;2023-07-31T08:00:14;53.03;42.48;64.78;;
76338;Laerm;20358;50.272;19.026;2023-07-31T08:03:21;52.15;42.59;69.91;;
76338;Laerm;20358;50.272;19.026;2023-07-31T08:06:28;52.53;42.10;70.07;;
76338;Laerm;20358;50.272;19.026;2023-07-31T08:09:34;50.67;42.03;62.22;;
76338;Laerm;20358;50.272;19.026;2023-07-31T08:12:41;51.26;41.25;62.21;;
76338;Laerm;20358;50.272;19.026;2023-07-31T08:15:49;51.45;40.66;72.00;;
76338;Laerm;20358;50.272;19.026;2023-07-31T08:18:56;50.05;41.03;58.88;;
76338;Laerm;20358;50.272;19.026;2023-07-31T08:22:07;50.80;42.51;60.14;;
76338;Laerm;20358;50.272;19.026;2023-07-31T08:25:17;53.74;43.90;70.05;;
76338;Laerm;20358;50.272;19.026;2023-07-31T08:28:24;50.79;41.64;72.56;;
76338;Laerm;20358;50.272;19.026;2023-07-31T08:31:34;53.39;45.07;64.45;;
76338;Laerm;20358;50.272;19.026;2023-07-31T08:34:42;51.66;44.70;65.10;;
76338;Laerm;20358;50.272;19.026;2023-07-31T08:38:08;52.41;45.07;62.95;;
76338;Laerm;20358;50.272;19.026;2023-07-31T08:41:14;53.01;42.91;76.11;;
76338;Laerm;20358;50.272;19.026;2023-07-31T08:44:21;53.81;42.24;74.36;;
76338;Laerm;20358;50.272;19.026;2023-07-31T08:47:31;52.17;44.53;67.84;;
76338;Laerm;20358;50.272;19.026;2023-07-31T08:50:38;50.96;43.01;63.11;;
76338;Laerm;20358;50.272;19.026;2023-07-31T08:53:44;53.23;44.37;73.92;;
76338;Laerm;20358;50.272;19.026;2023-07-31T08:56:53;50.67;41.81;61.78;;
76338;Laerm;20358;50.272;19.026;2023-07-31T09:00:01;55.37;43.59;67.39;;
76338;Laerm;20358;50.272;19.026;2023-07-31T09:03:18;51.66;43.18;74.06;;
76338;Laerm;20358;50.272;19.026;2023-07-31T09:06:32;50.95;41.23;63.22;;
76338;Laerm;20358;50.272;19.026;2023-07-31T09:09:49;51.92;42.60;62.08;;
76338;Laerm;20358;50.272;19.026;2023-07-31T09:13:00;50.76;41.64;61.30;;
76338;Laerm;20358;50.272;19.026;2023-07-31T09:16:27;50.56;40.32;58.72;;
76338;Laerm;20358;50.272;19.026;2023-07-31T09:19:40;53.53;44.12;69.21;;
76338;Laerm;20358;50.272;19.026;2023-07-31T09:22:48;50.86;43.02;59.80;;
76338;Laerm;20358;50.272;19.026;2023-07-31T09:25:54;49.84;40.46;59.66;;
76338;Laerm;20358;50.272;19.026;2023-07-31T09:29:06;50.19;41.59;56.60;;
76338;Laerm;20358;50.272;19.026;2023-07-31T09:32:17;52.23;43.35;70.56;;
76338;Laerm;20358;50.272;19.026;2023-07-31T09:35:33;52.90;43.03;73.32;;
76338;Laerm;20358;50.272;19.026;2023-07-31T09:38:42;50.91;44.12;58.73;;
76338;Laerm;20358;50.272;19.026;2023-07-31T09:41:57;52.52;41.40;67.71;;
76338;Laerm;20358;50.272;19.026;2023-07-31T09:45:10;56.32;46.15;77.23;;
76338;Laerm;20358;50.272;19.026;2023-07-31T09:48:27;53.26;41.26;68.55;;
76338;Laerm;20358;50.272;19.026;2023-07-31T09:51:36;51.96;42.74;61.40;;
76338;Laerm;20358;50.272;19.026;2023-07-31T09:54:46;50.40;43.60;60.63;;
76338;Laerm;20358;50.272;19.026;2023-07-31T09:57:57;49.38;42.49;58.47;;
76338;Laerm;20358;50.272;19.026;2023-07-31T10:01:04;52.16;44.50;65.01;;
76338;Laerm;20358;50.272;19.026;2023-07-31T10:04:12;59.77;44.76;80.36;;
76338;Laerm;20358;50.272;19.026;2023-07-31T10:07:29;51.97;44.49;60.82;;
76338;Laerm;20358;50.272;19.026;2023-07-31T10:10:37;50.76;44.23;63.96;;
76338;Laerm;20358;50.272;19.026;2023-07-31T10:13:49;51.76;43.20;63.57;;
76338;Laerm;20358;50.272;19.026;2023-07-31T10:16:57;51.78;42.77;67.05;;
76338;Laerm;20358;50.272;19.026;2023-07-31T10:20:11;51.99;45.30;62.24;;
76338;Laerm;20358;50.272;19.026;2023-07-31T10:23:22;52.53;42.21;72.85;;
76338;Laerm;20358;50.272;19.026;2023-07-31T10:26:32;53.57;43.10;73.44;;
76338;Laerm;20358;50.272;19.026;2023-07-31T10:29:41;51.34;42.97;63.15;;
76338;Laerm;20358;50.272;19.026;2023-07-31T10:32:53;51.18;42.34;63.15;;
76338;Laerm;20358;50.272;19.026;2023-07-31T10:36:18;52.07;41.92;65.07;;
76338;Laerm;20358;50.272;19.026;2023-07-31T10:39:38;50.99;42.87;59.05;;
76338;Laerm;20358;50.272;19.026;2023-07-31T10:42:51;50.78;44.31;58.87;;
76338;Laerm;20358;50.272;19.026;2023-07-31T10:46:14;51.13;43.03;59.82;;
76338;Laerm;20358;50.272;19.026;2023-07-31T10:49:29;51.29;43.87;66.42;;
76338;Laerm;20358;50.272;19.026;2023-07-31T10:52:36;50.40;43.93;57.39;;
76338;Laerm;20358;50.272;19.026;2023-07-31T10:55:45;53.44;43.47;67.12;;
76338;Laerm;20358;50.272;19.026;2023-07-31T10:59:01;50.24;42.08;62.50;;
76338;Laerm;20358;50.272;19.026;2023-07-31T11:02:25;52.05;41.41;71.49;;
76338;Laerm;20358;50.272;19.026;2023-07-31T11:05:50;52.62;44.34;64.71;;
76338;Laerm;20358;50.272;19.026;2023-07-31T11:08:57;50.51;42.42;63.01;;
76338;Laerm;20358;50.272;19.026;2023-07-31T11:12:07;53.79;43.94;65.34;;
76338;Laerm;20358;50.272;19.026;2023-07-31T11:15:15;51.68;42.83;65.67;;
76338;Laerm;20358;50.272;19.026;2023-07-31T11:18:26;51.50;43.29;60.68;;
76338;Laerm;20358;50.272;19.026;2023-07-31T11:21:32;51.89;45.53;62.49;;
76338;Laerm;20358;50.272;19.026;2023-07-31T11:24:39;52.92;41.27;68.33;;
76338;Laerm;20358;50.272;19.026;2023-07-31T11:27:50;51.96;43.18;65.50;;
76338;Laerm;20358;50.272;19.026;2023-07-31T11:31:02;51.60;42.87;65.24;;
76338;Laerm;20358;50.272;19.026;2023-07-31T11:34:08;53.00;42.50;65.44;;
76338;Laerm;20358;50.272;19.026;2023-07-31T11:37:15;53.16;42.55;72.39;;
76338;Laerm;20358;50.272;19.026;2023-07-31T11:40:21;51.56;43.18;59.20;;
76338;Laerm;20358;50.272;19.026;2023-07-31T11:43:38;52.39;43.59;66.78;;
76338;Laerm;20358;50.272;19.026;2023-07-31T11:46:44;51.97;42.84;66.31;;
76338;Laerm;20358;50.272;19.026;2023-07-31T11:49:51;56.07;47.02;78.76;;
76338;Laerm;20358;50.272;19.026;2023-07-31T11:53:03;55.02;43.43;80.56;;
76338;Laerm;20358;50.272;19.026;2023-07-31T11:56:19;50.05;42.41;60.22;;
76338;Laerm;20358;50.272;19.026;2023-07-31T11:59:28;51.25;44.00;66.09;;
76338;Laerm;20358;50.272;19.026;2023-07-31T12:02:47;51.52;41.81;60.58;;
76338;Laerm;20358;50.272;19.026;2023-07-31T12:05:57;53.10;46.64;66.65;;
76338;Laerm;20358;50.272;19.026;2023-07-31T12:09:05;53.52;44.68;70.59;;
76338;Laerm;20358;50.272;19.026;2023-07-31T12:12:20;51.86;43.10;61.80;;
76338;Laerm;20358;50.272;19.026;2023-07-31T12:15:42;51.58;44.26;62.72;;
76338;Laerm;20358;50.272;19.026;2023-07-31T12:18:50;53.49;45.67;68.03;;
76338;Laerm;20358;50.272;19.026;2023-07-31T12:22:00;52.55;44.39;67.11;;
76338;Laerm;20358;50.272;19.026;2023-07-31T12:25:07;53.05;42.81;63.23;;
76338;Laerm;20358;50.272;19.026;2023-07-31T12:28:14;53.20;43.10;64.12;;
76338;Laerm;20358;50.272;19.026;2023-07-31T12:31:23;54.91;45.35;78.01;;
76338;Laerm;20358;50.272;19.026;2023-07-31T12:34:30;53.82;44.57;64.51;;
76338;Laerm;20358;50.272;19.026;2023-07-31T12:37:38;53.07;44.06;67.21;;
76338;Laerm;20358;50.272;19.026;2023-07-31T12:40:46;53.45;45.58;69.10;;
76338;Laerm;20358;50.272;19.026;2023-07-31T12:43:51;54.64;45.03;65.84;;
76338;Laerm;20358;50.272;19.026;2023-07-31T12:47:04;61.47;48.14;83.92;;
76338;Laerm;20358;50.272;19.026;2023-07-31T12:50:10;54.67;45.83;78.44;;
76338;Laerm;20358;50.272;19.026;2023-07-31T12:53:17;53.32;47.52;62.90;;
76338;Laerm;20358;50.272;19.026;2023-07-31T12:56:23;54.91;46.17;64.83;;
76338;Laerm;20358;50.272;19.026;2023-07-31T12:59:29;53.92;44.58;69.71;;
76338;Laerm;20358;50.272;19.026;2023-07-31T13:02:38;53.20;45.88;67.26;;
76338;Laerm;20358;50.272;19.026;2023-07-31T13:05:45;54.42;46.61;69.56;;
76338;Laerm;20358;50.272;19.026;2023-07-31T13:08:51;55.20;47.17;70.20;;
76338;Laerm;20358;50.272;19.026;2023-07-31T13:11:58;55.06;43.39;71.25;;
76338;Laerm;20358;50.272;19.026;2023-07-31T13:15:06;53.83;43.24;68.94;;
76338;Laerm;20358;50.272;19.026;2023-07-31T13:18:16;53.93;45.16;66.09;;
76338;Laerm;20358;50.272;19.026;2023-07-31T13:21:22;56.60;47.78;81.03;;
76338;Laerm;20358;50.272;19.026;2023-07-31T13:24:29;53.44;44.22;68.55;;
76338;Laerm;20358;50.272;19.026;2023-07-31T13:27:38;53.00;44.24;60.99;;
76338;Laerm;20358;50.272;19.026;2023-07-31T13:30:46;53.94;42.69;64.31;;
76338;Laerm;20358;50.272;19.026;2023-07-31T13:33:56;55.53;46.01;64.47;;
76338;Laerm;20358;50.272;19.026;2023-07-31T13:37:04;52.64;42.73;67.26;;
76338;Laerm;20358;50.272;19.026;2023-07-31T13:40:11;53.16;43.10;63.63;;
76338;Laerm;20358;50.272;19.026;2023-07-31T13:43:18;54.59;46.46;69.09;;
76338;Laerm;20358;50.272;19.026;2023-07-31T13:46:24;53.62;45.50;70.29;;
76338;Laerm;20358;50.272;19.026;2023-07-31T13:49:35;55.60;45.11;73.17;;
76338;Laerm;20358;50.272;19.026;2023-07-31T13:52:44;55.14;44.22;68.15;;
76338;Laerm;20358;50.272;19.026;2023-07-31T13:55:51;53.47;44.95;61.96;;
76338;Laerm;20358;50.272;19.026;2023-07-31T13:58:57;53.23;45.54;62.63;;
76338;Laerm;20358;50.272;19.026;2023-07-31T14:02:04;54.03;44.39;67.09;;
76338;Laerm;20358;50.272;19.026;2023-07-31T14:05:13;53.42;45.42;61.28;;
76338;Laerm;20358;50.272;19.026;2023-07-31T14:08:20;53.76;45.63;64.97;;
76338;Laerm;20358;50.272;19.026;2023-07-31T14:11:27;54.05;44.16;66.63;;
76338;Laerm;20358;50.272;19.026;2023-07-31T14:14:36;53.86;46.09;62.78;;
76338;Laerm;20358;50.272;19.026;2023-07-31T14:17:41;53.35;45.38;65.87;;
76338;Laerm;20358;50.272;19.026;2023-07-31T14:20:51;52.58;43.47;61.82;;
76338;Laerm;20358;50.272;19.026;2023-07-31T14:23:57;53.14;41.06;59.56;;
76338;Laerm;20358;50.272;19.026;2023-07-31T14:27:05;52.83;42.34;63.06;;
76338;Laerm;20358;50.272;19.026;2023-07-31T14:30:11;53.87;47.31;66.53;;
76338;Laerm;20358;50.272;19.026;2023-07-31T14:33:18;55.04;44.34;74.41;;
76338;Laerm;20358;50.272;19.026;2023-07-31T14:36:26;53.22;42.16;60.71;;
76338;Laerm;20358;50.272;19.026;2023-07-31T14:39:33;53.73;44.22;66.79;;
76338;Laerm;20358;50.272;19.026;2023-07-31T14:42:43;53.28;44.91;67.14;;
76338;Laerm;20358;50.272;19.026;2023-07-31T14:45:50;53.14;42.75;73.33;;
76338;Laerm;20358;50.272;19.026;2023-07-31T14:49:00;54.59;46.86;68.97;;
76338;Laerm;20358;50.272;19.026;2023-07-31T14:52:10;52.70;42.71;63.52;;
76338;Laerm;20358;50.272;19.026;2023-07-31T14:55:16;54.69;44.02;66.03;;
76338;Laerm;20358;50.272;19.026;2023-07-31T14:58:23;55.18;47.41;69.46;;
76338;Laerm;20358;50.272;19.026;2023-07-31T15:01:28;53.43;42.65;70.13;;
76338;Laerm;20358;50.272;19.026;2023-07-31T15:04:36;52.50;43.21;70.82;;
76338;Laerm;20358;50.272;19.026;2023-07-31T15:07:44;53.67;42.70;66.71;;
76338;Laerm;20358;50.272;19.026;2023-07-31T15:10:51;53.64;45.49;62.84;;
76338;Laerm;20358;50.272;19.026;2023-07-31T15:14:00;53.97;44.75;71.94;;
76338;Laerm;20358;50.272;19.026;2023-07-31T15:17:07;53.53;44.93;62.17;;
76338;Laerm;20358;50.272;19.026;2023-07-31T15:20:14;53.37;40.66;65.75;;
76338;Laerm;20358;50.272;19.026;2023-07-31T15:23:24;55.98;47.84;69.84;;
76338;Laerm;20358;50.272;19.026;2023-07-31T15:26:30;54.50;46.06;67.63;;
76338;Laerm;20358;50.272;19.026;2023-07-31T15:29:36;54.47;45.50;65.74;;
76338;Laerm;20358;50.272;19.026;2023-07-31T15:32:42;53.54;41.54;65.07;;
76338;Laerm;20358;50.272;19.026;2023-07-31T15:35:52;54.65;44.45;69.29;;
76338;Laerm;20358;50.272;19.026;2023-07-31T15:39:02;52.67;42.77;61.16;;
76338;Laerm;20358;50.272;19.026;2023-07-31T15:42:08;53.62;44.70;62.65;;
76338;Laerm;20358;50.272;19.026;2023-07-31T15:45:14;54.54;42.86;66.78;;
76338;Laerm;20358;50.272;19.026;2023-07-31T15:48:23;53.16;44.32;62.96;;
76338;Laerm;20358;50.272;19.026;2023-07-31T15:51:29;53.17;43.75;64.84;;
76338;Laerm;20358;50.272;19.026;2023-07-31T15:54:38;53.27;43.74;61.12;;
76338;Laerm;20358;50.272;19.026;2023-07-31T15:57:45;53.66;42.35;76.39;;
76338;Laerm;20358;50.272;19.026;2023-07-31T16:00:53;54.27;44.69;73.95;;
76338;Laerm;20358;50.272;19.026;2023-07-31T16:03:59;54.75;42.66;72.28;;
76338;Laerm;20358;50.272;19.026;2023-07-31T16:07:06;53.46;44.60;66.98;;
76338;Laerm;20358;50.272;19.026;2023-07-31T16:10:15;53.47;40.82;66.50;;
76338;Laerm;20358;50.272;19.026;2023-07-31T16:13:22;55.03;44.77;72.57;;
76338;Laerm;20358;50.272;19.026;2023-07-31T16:16:27;53.11;43.61;63.45;;
76338;Laerm;20358;50.272;19.026;2023-07-31T16:19:35;52.29;42.79;61.75;;
76338;Laerm;20358;50.272;19.026;2023-07-31T16:22:40;52.17;41.91;67.95;;
76338;Laerm;20358;50.272;19.026;2023-07-31T16:25:50;53.14;44.31;64.37;;
76338;Laerm;20358;50.272;19.026;2023-07-31T16:28:55;51.93;42.77;65.51;;
76338;Laerm;20358;50.272;19.026;2023-07-31T16:32:06;52.78;42.96;61.70;;
76338;Laerm;20358;50.272;19.026;2023-07-31T16:35:15;51.70;43.62;62.63;;
76338;Laerm;20358;50.272;19.026;2023-07-31T16:38:21;51.84;43.11;63.44;;
76338;Laerm;20358;50.272;19.026;2023-07-31T16:41:30;52.44;42.84;63.45;;
76338;Laerm;20358;50.272;19.026;2023-07-31T16:44:37;53.38;42.01;77.93;;
76338;Laerm;20358;50.272;19.026;2023-07-31T16:47:43;52.45;42.93;60.18;;
76338;Laerm;20358;50.272;19.026;2023-07-31T16:50:53;51.18;42.64;60.51;;
76338;Laerm;20358;50.272;19.026;2023-07-31T16:53:59;51.33;40.28;61.94;;
76338;Laerm;20358;50.272;19.026;2023-07-31T16:57:09;51.64;41.27;63.67;;
76338;Laerm;20358;50.272;19.026;2023-07-31T17:00:15;52.64;45.03;70.21;;
76338;Laerm;20358;50.272;19.026;2023-07-31T17:03:24;52.81;43.51;66.33;;
76338;Laerm;20358;50.272;19.026;2023-07-31T17:06:30;53.15;44.30;65.49;;
76338;Laerm;20358;50.272;19.026;2023-07-31T17:09:37;52.99;42.43;64.51;;
76338;Laerm;20358;50.272;19.026;2023-07-31T17:12:45;51.79;40.80;68.03;;
76338;Laerm;20358;50.272;19.026;2023-07-31T17:15:52;52.73;42.98;64.19;;
76338;Laerm;20358;50.272;19.026;2023-07-31T17:18:58;51.93;43.58;62.98;;
76338;Laerm;20358;50.272;19.026;2023-07-31T17:22:06;51.43;41.75;61.02;;